sensor_id;sensor_type;location;lat;lon;timestamp;temperature;humidity
62809;DHT22;48848;39.002;-94.584;2023-06-14T00:00:15;22.00;42.40
62809;DHT22;48848;39.002;-94.584;2023-06-14T00:02:41;22.00;42.10
62809;DHT22;48848;39.002;-94.584;2023-06-14T00:05:07;22.00;42.30
62809;DHT22;48848;39.002;-94.584;2023-06-14T00:07:34;22.00;42.30
62809;DHT22;48848;39.002;-94.584;2023-06-14T00:10:00;21.90;42.10
62809;DHT22;48848;39.002;-94.584;2023-06-14T00:12:26;21.90;42.20
62809;DHT22;48848;39.002;-94.584;2023-06-14T00:14:52;21.90;42.30
62809;DHT22;48848;39.002;-94.584;2023-06-14T00:17:18;21.90;42.40
62809;DHT22;48848;39.002;-94.584;2023-06-14T00:19:44;21.80;42.20
62809;DHT22;48848;39.002;-94.584;2023-06-14T00:22:10;21.70;42.20
62809;DHT22;48848;39.002;-94.584;2023-06-14T00:24:36;21.70;42.30
62809;DHT22;48848;39.002;-94.584;2023-06-14T00:27:01;21.70;42.50
62809;DHT22;48848;39.002;-94.584;2023-06-14T00:29:27;21.70;43.00
62809;DHT22;48848;39.002;-94.584;2023-06-14T00:31:53;21.70;43.30
62809;DHT22;48848;39.002;-94.584;2023-06-14T00:34:19;21.70;43.70
62809;DHT22;48848;39.002;-94.584;2023-06-14T00:36:45;21.70;43.90
62809;DHT22;48848;39.002;-94.584;2023-06-14T00:39:10;21.70;44.00
62809;DHT22;48848;39.002;-94.584;2023-06-14T00:41:37;21.70;44.00
62809;DHT22;48848;39.002;-94.584;2023-06-14T00:44:04;21.70;43.60
62809;DHT22;48848;39.002;-94.584;2023-06-14T00:46:30;21.60;44.30
62809;DHT22;48848;39.002;-94.584;2023-06-14T00:48:56;21.60;44.10
62809;DHT22;48848;39.002;-94.584;2023-06-14T00:51:22;21.60;43.70
62809;DHT22;48848;39.002;-94.584;2023-06-14T00:53:48;21.60;43.60
62809;DHT22;48848;39.002;-94.584;2023-06-14T00:56:14;21.60;43.30
62809;DHT22;48848;39.002;-94.584;2023-06-14T00:58:40;21.60;43.50
62809;DHT22;48848;39.002;-94.584;2023-06-14T01:01:07;21.50;43.00
62809;DHT22;48848;39.002;-94.584;2023-06-14T01:03:33;21.50;43.10
62809;DHT22;48848;39.002;-94.584;2023-06-14T01:09:06;21.40;42.90
62809;DHT22;48848;39.002;-94.584;2023-06-14T01:11:35;21.40;43.30
62809;DHT22;48848;39.002;-94.584;2023-06-14T01:14:03;21.40;43.10
62809;DHT22;48848;39.002;-94.584;2023-06-14T01:16:30;21.40;43.10
62809;DHT22;48848;39.002;-94.584;2023-06-14T01:18:57;21.30;42.80
62809;DHT22;48848;39.002;-94.584;2023-06-14T01:21:24;21.30;43.20
62809;DHT22;48848;39.002;-94.584;2023-06-14T01:23:50;21.30;43.20
62809;DHT22;48848;39.002;-94.584;2023-06-14T01:26:22;21.30;42.90
62809;DHT22;48848;39.002;-94.584;2023-06-14T01:28:49;21.30;42.90
62809;DHT22;48848;39.002;-94.584;2023-06-14T01:31:19;21.30;43.50
62809;DHT22;48848;39.002;-94.584;2023-06-14T01:33:47;21.30;44.10
62809;DHT22;48848;39.002;-94.584;2023-06-14T01:36:13;21.30;43.30
62809;DHT22;48848;39.002;-94.584;2023-06-14T01:38:40;21.30;43.60
62809;DHT22;48848;39.002;-94.584;2023-06-14T01:41:06;21.20;44.50
62809;DHT22;48848;39.002;-94.584;2023-06-14T01:43:32;21.20;43.80
62809;DHT22;48848;39.002;-94.584;2023-06-14T01:45:59;21.20;44.10
62809;DHT22;48848;39.002;-94.584;2023-06-14T01:48:25;21.20;44.30
62809;DHT22;48848;39.002;-94.584;2023-06-14T01:50:52;21.20;43.40
62809;DHT22;48848;39.002;-94.584;2023-06-14T01:53:18;21.20;43.00
62809;DHT22;48848;39.002;-94.584;2023-06-14T01:55:43;21.20;43.70
62809;DHT22;48848;39.002;-94.584;2023-06-14T01:58:10;21.10;43.50
62809;DHT22;48848;39.002;-94.584;2023-06-14T02:00:36;21.10;43.40
62809;DHT22;48848;39.002;-94.584;2023-06-14T02:03:02;21.00;43.50
62809;DHT22;48848;39.002;-94.584;2023-06-14T02:05:30;21.00;43.40
62809;DHT22;48848;39.002;-94.584;2023-06-14T02:07:55;21.00;43.20
62809;DHT22;48848;39.002;-94.584;2023-06-14T02:10:22;21.00;43.30
62809;DHT22;48848;39.002;-94.584;2023-06-14T02:12:47;21.00;43.00
62809;DHT22;48848;39.002;-94.584;2023-06-14T02:15:13;21.00;43.20
62809;DHT22;48848;39.002;-94.584;2023-06-14T02:17:48;20.90;42.80
62809;DHT22;48848;39.002;-94.584;2023-06-14T02:20:15;21.20;42.50
62809;DHT22;48848;39.002;-94.584;2023-06-14T02:22:41;21.10;41.10
62809;DHT22;48848;39.002;-94.584;2023-06-14T02:25:07;21.20;41.50
62809;DHT22;48848;39.002;-94.584;2023-06-14T02:27:33;21.30;41.30
62809;DHT22;48848;39.002;-94.584;2023-06-14T02:30:00;21.40;40.90
62809;DHT22;48848;39.002;-94.584;2023-06-14T02:32:26;21.30;40.90
62809;DHT22;48848;39.002;-94.584;2023-06-14T02:34:54;21.30;44.00
62809;DHT22;48848;39.002;-94.584;2023-06-14T02:37:20;21.60;43.30
62809;DHT22;48848;39.002;-94.584;2023-06-14T02:39:46;21.90;42.80
62809;DHT22;48848;39.002;-94.584;2023-06-14T02:42:12;22.20;42.30
62809;DHT22;48848;39.002;-94.584;2023-06-14T02:44:38;22.40;42.30
62809;DHT22;48848;39.002;-94.584;2023-06-14T02:47:04;22.50;42.20
62809;DHT22;48848;39.002;-94.584;2023-06-14T02:49:30;22.60;42.30
62809;DHT22;48848;39.002;-94.584;2023-06-14T02:51:56;22.80;42.40
62809;DHT22;48848;39.002;-94.584;2023-06-14T02:54:22;22.80;42.50
62809;DHT22;48848;39.002;-94.584;2023-06-14T02:56:48;22.90;43.20
62809;DHT22;48848;39.002;-94.584;2023-06-14T02:59:13;23.00;42.70
62809;DHT22;48848;39.002;-94.584;2023-06-14T03:01:40;23.00;42.70
62809;DHT22;48848;39.002;-94.584;2023-06-14T03:04:09;23.10;42.80
62809;DHT22;48848;39.002;-94.584;2023-06-14T03:06:35;23.20;42.90
62809;DHT22;48848;39.002;-94.584;2023-06-14T03:09:02;23.20;42.90
62809;DHT22;48848;39.002;-94.584;2023-06-14T03:11:31;23.30;43.00
62809;DHT22;48848;39.002;-94.584;2023-06-14T03:13:57;23.40;43.10
62809;DHT22;48848;39.002;-94.584;2023-06-14T03:16:23;23.40;43.00
62809;DHT22;48848;39.002;-94.584;2023-06-14T03:18:52;23.40;43.10
62809;DHT22;48848;39.002;-94.584;2023-06-14T03:21:19;23.50;43.20
62809;DHT22;48848;39.002;-94.584;2023-06-14T03:23:46;23.50;43.20
62809;DHT22;48848;39.002;-94.584;2023-06-14T03:26:12;23.60;43.30
62809;DHT22;48848;39.002;-94.584;2023-06-14T03:28:46;23.60;43.20
62809;DHT22;48848;39.002;-94.584;2023-06-14T03:31:13;23.60;43.40
62809;DHT22;48848;39.002;-94.584;2023-06-14T03:33:39;23.70;43.40
62809;DHT22;48848;39.002;-94.584;2023-06-14T03:36:05;23.70;43.50
62809;DHT22;48848;39.002;-94.584;2023-06-14T03:38:32;23.70;43.50
62809;DHT22;48848;39.002;-94.584;2023-06-14T03:40:58;23.70;40.70
62809;DHT22;48848;39.002;-94.584;2023-06-14T03:43:24;23.50;39.70
62809;DHT22;48848;39.002;-94.584;2023-06-14T03:45:50;23.20;40.30
62809;DHT22;48848;39.002;-94.584;2023-06-14T03:48:16;23.00;40.40
62809;DHT22;48848;39.002;-94.584;2023-06-14T03:50:42;22.70;40.30
62809;DHT22;48848;39.002;-94.584;2023-06-14T03:53:10;22.50;40.50
62809;DHT22;48848;39.002;-94.584;2023-06-14T03:55:35;22.30;40.70
62809;DHT22;48848;39.002;-94.584;2023-06-14T03:58:03;22.10;40.80
62809;DHT22;48848;39.002;-94.584;2023-06-14T04:00:29;21.90;40.90
62809;DHT22;48848;39.002;-94.584;2023-06-14T04:02:55;21.80;41.00
62809;DHT22;48848;39.002;-94.584;2023-06-14T04:05:21;21.70;41.40
62809;DHT22;48848;39.002;-94.584;2023-06-14T04:07:47;21.60;43.60
62809;DHT22;48848;39.002;-94.584;2023-06-14T04:10:14;21.60;46.60
62809;DHT22;48848;39.002;-94.584;2023-06-14T04:12:40;21.70;46.10
62809;DHT22;48848;39.002;-94.584;2023-06-14T04:15:10;22.00;45.90
62809;DHT22;48848;39.002;-94.584;2023-06-14T04:17:36;22.10;45.70
62809;DHT22;48848;39.002;-94.584;2023-06-14T04:20:02;22.10;45.90
62809;DHT22;48848;39.002;-94.584;2023-06-14T04:22:30;22.00;46.20
62809;DHT22;48848;39.002;-94.584;2023-06-14T04:24:56;21.90;46.40
62809;DHT22;48848;39.002;-94.584;2023-06-14T04:27:23;21.90;46.40
62809;DHT22;48848;39.002;-94.584;2023-06-14T04:29:57;21.90;46.60
62809;DHT22;48848;39.002;-94.584;2023-06-14T04:32:23;21.90;46.50
62809;DHT22;48848;39.002;-94.584;2023-06-14T04:34:54;22.00;46.60
62809;DHT22;48848;39.002;-94.584;2023-06-14T04:37:23;22.10;46.60
62809;DHT22;48848;39.002;-94.584;2023-06-14T04:39:49;22.20;46.40
62809;DHT22;48848;39.002;-94.584;2023-06-14T04:42:15;22.20;46.30
62809;DHT22;48848;39.002;-94.584;2023-06-14T04:44:42;22.30;46.40
62809;DHT22;48848;39.002;-94.584;2023-06-14T04:47:09;22.40;46.10
62809;DHT22;48848;39.002;-94.584;2023-06-14T04:49:35;22.40;46.40
62809;DHT22;48848;39.002;-94.584;2023-06-14T04:52:01;22.20;46.50
62809;DHT22;48848;39.002;-94.584;2023-06-14T04:54:27;22.30;46.60
62809;DHT22;48848;39.002;-94.584;2023-06-14T04:56:53;22.30;46.40
62809;DHT22;48848;39.002;-94.584;2023-06-14T04:59:21;22.40;46.50
62809;DHT22;48848;39.002;-94.584;2023-06-14T05:01:49;22.60;46.10
62809;DHT22;48848;39.002;-94.584;2023-06-14T05:04:15;22.60;46.20
62809;DHT22;48848;39.002;-94.584;2023-06-14T05:06:44;22.70;46.10
62809;DHT22;48848;39.002;-94.584;2023-06-14T05:09:11;22.70;45.80
62809;DHT22;48848;39.002;-94.584;2023-06-14T05:11:37;22.90;45.80
62809;DHT22;48848;39.002;-94.584;2023-06-14T05:14:02;23.00;45.50
62809;DHT22;48848;39.002;-94.584;2023-06-14T05:16:28;23.00;45.60
62809;DHT22;48848;39.002;-94.584;2023-06-14T05:18:54;23.10;45.60
62809;DHT22;48848;39.002;-94.584;2023-06-14T05:21:21;23.10;45.60
62809;DHT22;48848;39.002;-94.584;2023-06-14T05:23:46;23.10;45.50
62809;DHT22;48848;39.002;-94.584;2023-06-14T05:26:12;23.10;45.70
62809;DHT22;48848;39.002;-94.584;2023-06-14T05:28:38;23.00;45.80
62809;DHT22;48848;39.002;-94.584;2023-06-14T05:31:04;23.10;45.70
62809;DHT22;48848;39.002;-94.584;2023-06-14T05:33:30;23.10;45.70
62809;DHT22;48848;39.002;-94.584;2023-06-14T05:35:56;23.10;45.50
62809;DHT22;48848;39.002;-94.584;2023-06-14T05:38:22;23.10;45.60
62809;DHT22;48848;39.002;-94.584;2023-06-14T05:40:48;23.00;45.90
62809;DHT22;48848;39.002;-94.584;2023-06-14T05:43:14;23.10;45.80
62809;DHT22;48848;39.002;-94.584;2023-06-14T05:45:39;23.10;45.70
62809;DHT22;48848;39.002;-94.584;2023-06-14T05:48:05;23.00;45.90
62809;DHT22;48848;39.002;-94.584;2023-06-14T05:50:31;22.80;46.30
62809;DHT22;48848;39.002;-94.584;2023-06-14T05:52:57;22.60;46.80
62809;DHT22;48848;39.002;-94.584;2023-06-14T05:55:23;22.80;46.50
62809;DHT22;48848;39.002;-94.584;2023-06-14T05:57:49;22.80;46.30
62809;DHT22;48848;39.002;-94.584;2023-06-14T06:00:15;22.60;46.80
62809;DHT22;48848;39.002;-94.584;2023-06-14T06:02:42;22.50;47.00
62809;DHT22;48848;39.002;-94.584;2023-06-14T06:05:11;22.40;47.30
62809;DHT22;48848;39.002;-94.584;2023-06-14T06:07:38;22.40;47.70
62809;DHT22;48848;39.002;-94.584;2023-06-14T06:10:05;22.30;47.60
62809;DHT22;48848;39.002;-94.584;2023-06-14T06:12:32;22.30;47.70
62809;DHT22;48848;39.002;-94.584;2023-06-14T06:14:58;22.30;47.70
62809;DHT22;48848;39.002;-94.584;2023-06-14T06:17:24;22.40;47.80
62809;DHT22;48848;39.002;-94.584;2023-06-14T06:19:50;22.40;47.70
62809;DHT22;48848;39.002;-94.584;2023-06-14T06:22:16;22.40;47.50
62809;DHT22;48848;39.002;-94.584;2023-06-14T06:24:42;22.50;47.40
62809;DHT22;48848;39.002;-94.584;2023-06-14T06:27:08;22.50;47.20
62809;DHT22;48848;39.002;-94.584;2023-06-14T06:29:35;22.50;47.40
62809;DHT22;48848;39.002;-94.584;2023-06-14T06:32:01;22.50;47.40
62809;DHT22;48848;39.002;-94.584;2023-06-14T06:34:27;22.40;47.50
62809;DHT22;48848;39.002;-94.584;2023-06-14T06:36:53;22.40;47.60
62809;DHT22;48848;39.002;-94.584;2023-06-14T06:39:19;22.40;47.60
62809;DHT22;48848;39.002;-94.584;2023-06-14T06:41:44;22.50;47.40
62809;DHT22;48848;39.002;-94.584;2023-06-14T06:44:10;22.50;47.40
62809;DHT22;48848;39.002;-94.584;2023-06-14T06:46:36;22.60;47.20
62809;DHT22;48848;39.002;-94.584;2023-06-14T06:49:06;22.60;47.10
62809;DHT22;48848;39.002;-94.584;2023-06-14T06:51:34;22.60;46.90
62809;DHT22;48848;39.002;-94.584;2023-06-14T06:54:00;22.70;47.10
62809;DHT22;48848;39.002;-94.584;2023-06-14T06:56:26;22.70;47.30
62809;DHT22;48848;39.002;-94.584;2023-06-14T06:58:52;22.60;47.20
62809;DHT22;48848;39.002;-94.584;2023-06-14T07:01:18;22.70;47.30
62809;DHT22;48848;39.002;-94.584;2023-06-14T07:03:46;22.60;47.30
62809;DHT22;48848;39.002;-94.584;2023-06-14T07:06:12;22.70;47.30
62809;DHT22;48848;39.002;-94.584;2023-06-14T07:08:38;22.60;47.30
62809;DHT22;48848;39.002;-94.584;2023-06-14T07:11:04;22.60;47.20
62809;DHT22;48848;39.002;-94.584;2023-06-14T07:13:30;22.70;46.90
62809;DHT22;48848;39.002;-94.584;2023-06-14T07:15:59;22.70;47.00
62809;DHT22;48848;39.002;-94.584;2023-06-14T07:18:28;22.70;46.90
62809;DHT22;48848;39.002;-94.584;2023-06-14T07:20:54;22.80;47.00
62809;DHT22;48848;39.002;-94.584;2023-06-14T07:23:20;22.70;47.20
62809;DHT22;48848;39.002;-94.584;2023-06-14T07:25:46;22.70;47.30
62809;DHT22;48848;39.002;-94.584;2023-06-14T07:28:12;22.70;47.20
62809;DHT22;48848;39.002;-94.584;2023-06-14T07:30:38;22.70;47.20
62809;DHT22;48848;39.002;-94.584;2023-06-14T07:33:03;22.70;47.00
62809;DHT22;48848;39.002;-94.584;2023-06-14T07:35:29;22.80;47.00
62809;DHT22;48848;39.002;-94.584;2023-06-14T07:37:55;22.90;46.80
62809;DHT22;48848;39.002;-94.584;2023-06-14T07:40:21;22.90;46.70
62809;DHT22;48848;39.002;-94.584;2023-06-14T07:42:47;23.00;46.50
62809;DHT22;48848;39.002;-94.584;2023-06-14T07:45:15;23.00;46.60
62809;DHT22;48848;39.002;-94.584;2023-06-14T07:47:41;22.90;46.70
62809;DHT22;48848;39.002;-94.584;2023-06-14T07:50:06;22.90;46.70
62809;DHT22;48848;39.002;-94.584;2023-06-14T07:52:32;23.00;46.70
62809;DHT22;48848;39.002;-94.584;2023-06-14T07:54:58;23.00;46.60
62809;DHT22;48848;39.002;-94.584;2023-06-14T07:57:24;22.90;46.60
62809;DHT22;48848;39.002;-94.584;2023-06-14T07:59:50;23.00;46.60
62809;DHT22;48848;39.002;-94.584;2023-06-14T08:02:16;23.00;46.40
62809;DHT22;48848;39.002;-94.584;2023-06-14T08:04:42;23.00;46.20
62809;DHT22;48848;39.002;-94.584;2023-06-14T08:07:08;23.10;46.00
62809;DHT22;48848;39.002;-94.584;2023-06-14T08:09:34;23.10;46.00
62809;DHT22;48848;39.002;-94.584;2023-06-14T08:12:03;23.00;46.10
62809;DHT22;48848;39.002;-94.584;2023-06-14T08:14:29;23.00;46.20
62809;DHT22;48848;39.002;-94.584;2023-06-14T08:16:55;22.90;46.40
62809;DHT22;48848;39.002;-94.584;2023-06-14T08:19:21;22.90;46.40
62809;DHT22;48848;39.002;-94.584;2023-06-14T08:21:46;22.90;46.40
62809;DHT22;48848;39.002;-94.584;2023-06-14T08:24:12;22.90;46.40
62809;DHT22;48848;39.002;-94.584;2023-06-14T08:26:39;23.00;46.40
62809;DHT22;48848;39.002;-94.584;2023-06-14T08:29:05;23.00;46.20
62809;DHT22;48848;39.002;-94.584;2023-06-14T08:31:32;23.10;45.90
62809;DHT22;48848;39.002;-94.584;2023-06-14T08:33:58;23.10;45.90
62809;DHT22;48848;39.002;-94.584;2023-06-14T08:36:24;23.20;45.80
62809;DHT22;48848;39.002;-94.584;2023-06-14T08:38:50;23.20;45.80
62809;DHT22;48848;39.002;-94.584;2023-06-14T08:41:22;23.20;45.70
62809;DHT22;48848;39.002;-94.584;2023-06-14T08:43:50;23.20;45.70
62809;DHT22;48848;39.002;-94.584;2023-06-14T08:46:17;23.20;45.70
62809;DHT22;48848;39.002;-94.584;2023-06-14T08:48:48;23.00;45.80
62809;DHT22;48848;39.002;-94.584;2023-06-14T08:51:16;23.00;45.80
62809;DHT22;48848;39.002;-94.584;2023-06-14T08:53:43;23.00;45.90
62809;DHT22;48848;39.002;-94.584;2023-06-14T08:56:09;23.10;45.90
62809;DHT22;48848;39.002;-94.584;2023-06-14T08:58:40;23.10;46.90
62809;DHT22;48848;39.002;-94.584;2023-06-14T09:01:10;23.10;46.00
62809;DHT22;48848;39.002;-94.584;2023-06-14T09:03:40;23.10;45.70
62809;DHT22;48848;39.002;-94.584;2023-06-14T09:06:07;23.10;45.80
62809;DHT22;48848;39.002;-94.584;2023-06-14T09:08:34;23.10;45.80
62809;DHT22;48848;39.002;-94.584;2023-06-14T09:11:03;23.10;45.80
62809;DHT22;48848;39.002;-94.584;2023-06-14T09:13:30;23.20;45.70
62809;DHT22;48848;39.002;-94.584;2023-06-14T09:15:56;23.10;45.90
62809;DHT22;48848;39.002;-94.584;2023-06-14T09:18:22;23.00;46.70
62809;DHT22;48848;39.002;-94.584;2023-06-14T09:20:58;23.10;45.90
62809;DHT22;48848;39.002;-94.584;2023-06-14T09:23:24;23.10;45.90
62809;DHT22;48848;39.002;-94.584;2023-06-14T09:25:50;23.10;46.00
62809;DHT22;48848;39.002;-94.584;2023-06-14T09:28:16;23.10;45.90
62809;DHT22;48848;39.002;-94.584;2023-06-14T09:30:42;23.10;45.80
62809;DHT22;48848;39.002;-94.584;2023-06-14T09:33:08;23.10;45.80
62809;DHT22;48848;39.002;-94.584;2023-06-14T09:35:34;23.10;45.90
62809;DHT22;48848;39.002;-94.584;2023-06-14T09:38:00;23.20;45.80
62809;DHT22;48848;39.002;-94.584;2023-06-14T09:40:26;23.10;45.90
62809;DHT22;48848;39.002;-94.584;2023-06-14T09:42:52;23.10;46.00
62809;DHT22;48848;39.002;-94.584;2023-06-14T09:45:18;23.00;46.00
62809;DHT22;48848;39.002;-94.584;2023-06-14T09:47:51;23.00;46.10
62809;DHT22;48848;39.002;-94.584;2023-06-14T09:50:17;23.00;46.00
62809;DHT22;48848;39.002;-94.584;2023-06-14T09:52:45;23.00;46.10
62809;DHT22;48848;39.002;-94.584;2023-06-14T09:55:14;23.10;45.90
62809;DHT22;48848;39.002;-94.584;2023-06-14T09:57:43;23.20;45.80
62809;DHT22;48848;39.002;-94.584;2023-06-14T10:00:11;23.20;45.80
62809;DHT22;48848;39.002;-94.584;2023-06-14T10:02:38;23.10;45.80
62809;DHT22;48848;39.002;-94.584;2023-06-14T10:05:08;23.20;45.80
62809;DHT22;48848;39.002;-94.584;2023-06-14T10:07:53;23.10;45.70
62809;DHT22;48848;39.002;-94.584;2023-06-14T10:10:21;23.10;45.90
62809;DHT22;48848;39.002;-94.584;2023-06-14T10:12:47;23.10;46.00
62809;DHT22;48848;39.002;-94.584;2023-06-14T10:15:20;23.10;46.00
62809;DHT22;48848;39.002;-94.584;2023-06-14T10:20:59;23.00;45.90
62809;DHT22;48848;39.002;-94.584;2023-06-14T10:23:30;23.10;46.00
62809;DHT22;48848;39.002;-94.584;2023-06-14T10:25:57;23.10;45.70
62809;DHT22;48848;39.002;-94.584;2023-06-14T10:28:23;23.10;45.70
62809;DHT22;48848;39.002;-94.584;2023-06-14T10:33:31;23.10;45.90
62809;DHT22;48848;39.002;-94.584;2023-06-14T10:39:37;23.10;45.90
62809;DHT22;48848;39.002;-94.584;2023-06-14T10:41:52;23.10;45.80
62809;DHT22;48848;39.002;-94.584;2023-06-14T10:46:53;23.10;45.70
62809;DHT22;48848;39.002;-94.584;2023-06-14T10:49:19;23.10;45.70
62809;DHT22;48848;39.002;-94.584;2023-06-14T10:51:46;23.10;45.70
62809;DHT22;48848;39.002;-94.584;2023-06-14T10:54:15;23.10;45.80
62809;DHT22;48848;39.002;-94.584;2023-06-14T10:56:47;23.00;45.80
62809;DHT22;48848;39.002;-94.584;2023-06-14T10:59:17;22.90;46.00
62809;DHT22;48848;39.002;-94.584;2023-06-14T11:04:34;22.90;46.30
62809;DHT22;48848;39.002;-94.584;2023-06-14T11:07:18;22.80;46.40
62809;DHT22;48848;39.002;-94.584;2023-06-14T11:09:51;22.90;46.30
62809;DHT22;48848;39.002;-94.584;2023-06-14T11:12:21;22.90;46.30
62809;DHT22;48848;39.002;-94.584;2023-06-14T11:14:48;22.90;46.40
62809;DHT22;48848;39.002;-94.584;2023-06-14T11:17:14;22.90;46.40
62809;DHT22;48848;39.002;-94.584;2023-06-14T11:19:40;22.80;46.50
62809;DHT22;48848;39.002;-94.584;2023-06-14T11:22:05;22.80;46.60
62809;DHT22;48848;39.002;-94.584;2023-06-14T11:24:32;22.80;46.70
62809;DHT22;48848;39.002;-94.584;2023-06-14T11:26:58;22.80;46.70
62809;DHT22;48848;39.002;-94.584;2023-06-14T11:29:24;22.80;46.60
62809;DHT22;48848;39.002;-94.584;2023-06-14T11:31:50;22.80;46.70
62809;DHT22;48848;39.002;-94.584;2023-06-14T11:34:16;22.80;46.70
62809;DHT22;48848;39.002;-94.584;2023-06-14T11:36:43;22.90;46.70
62809;DHT22;48848;39.002;-94.584;2023-06-14T11:39:09;22.80;47.10
62809;DHT22;48848;39.002;-94.584;2023-06-14T11:41:41;22.80;46.70
62809;DHT22;48848;39.002;-94.584;2023-06-14T11:44:07;22.80;46.80
62809;DHT22;48848;39.002;-94.584;2023-06-14T11:46:33;22.80;46.80
62809;DHT22;48848;39.002;-94.584;2023-06-14T11:49:00;22.90;46.60
62809;DHT22;48848;39.002;-94.584;2023-06-14T11:51:34;22.90;46.50
62809;DHT22;48848;39.002;-94.584;2023-06-14T11:54:01;22.90;46.50
62809;DHT22;48848;39.002;-94.584;2023-06-14T11:56:28;22.90;46.40
62809;DHT22;48848;39.002;-94.584;2023-06-14T11:58:54;22.90;46.50
62809;DHT22;48848;39.002;-94.584;2023-06-14T12:01:23;22.90;46.50
62809;DHT22;48848;39.002;-94.584;2023-06-14T12:03:49;22.90;46.40
62809;DHT22;48848;39.002;-94.584;2023-06-14T12:06:16;22.90;46.40
62809;DHT22;48848;39.002;-94.584;2023-06-14T12:08:43;22.90;46.30
62809;DHT22;48848;39.002;-94.584;2023-06-14T12:11:11;22.90;46.50
62809;DHT22;48848;39.002;-94.584;2023-06-14T12:13:43;22.80;46.40
62809;DHT22;48848;39.002;-94.584;2023-06-14T12:16:09;22.80;46.40
62809;DHT22;48848;39.002;-94.584;2023-06-14T12:18:36;22.90;46.50
62809;DHT22;48848;39.002;-94.584;2023-06-14T12:21:05;22.90;46.40
62809;DHT22;48848;39.002;-94.584;2023-06-14T12:24:05;22.90;46.30
62809;DHT22;48848;39.002;-94.584;2023-06-14T12:26:24;22.90;46.30
62809;DHT22;48848;39.002;-94.584;2023-06-14T12:28:51;22.90;46.20
62809;DHT22;48848;39.002;-94.584;2023-06-14T12:31:17;22.90;46.30
62809;DHT22;48848;39.002;-94.584;2023-06-14T12:33:44;22.80;46.40
62809;DHT22;48848;39.002;-94.584;2023-06-14T12:36:11;22.90;46.40
62809;DHT22;48848;39.002;-94.584;2023-06-14T12:38:37;22.90;46.40
62809;DHT22;48848;39.002;-94.584;2023-06-14T12:41:03;22.90;46.40
62809;DHT22;48848;39.002;-94.584;2023-06-14T12:43:29;22.90;46.50
62809;DHT22;48848;39.002;-94.584;2023-06-14T12:45:55;22.90;46.40
62809;DHT22;48848;39.002;-94.584;2023-06-14T12:48:21;22.90;46.40
62809;DHT22;48848;39.002;-94.584;2023-06-14T12:50:47;22.90;46.30
62809;DHT22;48848;39.002;-94.584;2023-06-14T12:53:13;22.80;46.40
62809;DHT22;48848;39.002;-94.584;2023-06-14T12:55:39;22.80;46.60
62809;DHT22;48848;39.002;-94.584;2023-06-14T12:58:05;22.80;47.80
62809;DHT22;48848;39.002;-94.584;2023-06-14T13:00:31;22.70;47.00
62809;DHT22;48848;39.002;-94.584;2023-06-14T13:02:57;22.70;47.30
62809;DHT22;48848;39.002;-94.584;2023-06-14T13:05:23;22.80;47.20
62809;DHT22;48848;39.002;-94.584;2023-06-14T13:07:49;22.60;47.80
62809;DHT22;48848;39.002;-94.584;2023-06-14T13:10:15;22.70;47.70
62809;DHT22;48848;39.002;-94.584;2023-06-14T13:12:41;22.80;47.80
62809;DHT22;48848;39.002;-94.584;2023-06-14T13:15:07;22.80;47.50
62809;DHT22;48848;39.002;-94.584;2023-06-14T13:17:34;22.80;47.90
62809;DHT22;48848;39.002;-94.584;2023-06-14T13:20:04;22.80;47.40
62809;DHT22;48848;39.002;-94.584;2023-06-14T13:22:30;22.80;47.50
62809;DHT22;48848;39.002;-94.584;2023-06-14T13:24:56;22.80;47.70
62809;DHT22;48848;39.002;-94.584;2023-06-14T13:27:22;22.80;47.40
62809;DHT22;48848;39.002;-94.584;2023-06-14T13:29:49;22.80;47.30
62809;DHT22;48848;39.002;-94.584;2023-06-14T13:32:15;22.80;48.40
62809;DHT22;48848;39.002;-94.584;2023-06-14T13:34:41;22.80;47.40
62809;DHT22;48848;39.002;-94.584;2023-06-14T13:37:07;22.80;47.40
62809;DHT22;48848;39.002;-94.584;2023-06-14T13:39:33;22.80;47.40
62809;DHT22;48848;39.002;-94.584;2023-06-14T13:41:59;22.80;47.30
62809;DHT22;48848;39.002;-94.584;2023-06-14T13:44:25;22.70;47.30
62809;DHT22;48848;39.002;-94.584;2023-06-14T13:46:51;22.70;47.40
62809;DHT22;48848;39.002;-94.584;2023-06-14T13:49:17;22.70;47.40
62809;DHT22;48848;39.002;-94.584;2023-06-14T13:51:43;22.70;47.40
62809;DHT22;48848;39.002;-94.584;2023-06-14T13:54:11;22.80;47.30
62809;DHT22;48848;39.002;-94.584;2023-06-14T13:56:37;22.70;47.40
62809;DHT22;48848;39.002;-94.584;2023-06-14T13:59:04;22.70;47.60
62809;DHT22;48848;39.002;-94.584;2023-06-14T14:01:30;22.80;47.80
62809;DHT22;48848;39.002;-94.584;2023-06-14T14:03:56;22.80;48.00
62809;DHT22;48848;39.002;-94.584;2023-06-14T14:06:21;22.90;48.10
62809;DHT22;48848;39.002;-94.584;2023-06-14T14:08:47;22.80;48.00
62809;DHT22;48848;39.002;-94.584;2023-06-14T14:11:13;22.80;47.90
62809;DHT22;48848;39.002;-94.584;2023-06-14T14:13:41;22.80;47.80
62809;DHT22;48848;39.002;-94.584;2023-06-14T14:16:08;22.90;48.00
62809;DHT22;48848;39.002;-94.584;2023-06-14T14:18:33;22.90;48.10
62809;DHT22;48848;39.002;-94.584;2023-06-14T14:21:00;22.90;47.80
62809;DHT22;48848;39.002;-94.584;2023-06-14T14:23:27;22.90;47.80
62809;DHT22;48848;39.002;-94.584;2023-06-14T14:25:53;22.90;47.70
62809;DHT22;48848;39.002;-94.584;2023-06-14T14:28:19;22.90;47.90
62809;DHT22;48848;39.002;-94.584;2023-06-14T14:30:46;22.90;47.60
62809;DHT22;48848;39.002;-94.584;2023-06-14T14:33:15;22.90;47.80
62809;DHT22;48848;39.002;-94.584;2023-06-14T14:35:43;22.90;47.70
62809;DHT22;48848;39.002;-94.584;2023-06-14T14:38:11;22.90;47.70
62809;DHT22;48848;39.002;-94.584;2023-06-14T14:40:37;22.90;47.60
62809;DHT22;48848;39.002;-94.584;2023-06-14T14:43:03;22.90;47.60
62809;DHT22;48848;39.002;-94.584;2023-06-14T14:45:29;22.90;47.70
62809;DHT22;48848;39.002;-94.584;2023-06-14T14:47:54;22.90;47.70
62809;DHT22;48848;39.002;-94.584;2023-06-14T14:50:21;23.00;47.60
62809;DHT22;48848;39.002;-94.584;2023-06-14T14:52:47;23.00;47.60
62809;DHT22;48848;39.002;-94.584;2023-06-14T14:55:13;23.00;47.50
62809;DHT22;48848;39.002;-94.584;2023-06-14T14:57:39;23.00;47.50
62809;DHT22;48848;39.002;-94.584;2023-06-14T15:00:05;23.00;47.50
62809;DHT22;48848;39.002;-94.584;2023-06-14T15:02:31;23.00;47.40
62809;DHT22;48848;39.002;-94.584;2023-06-14T15:04:57;23.00;47.50
62809;DHT22;48848;39.002;-94.584;2023-06-14T15:07:26;23.00;47.50
62809;DHT22;48848;39.002;-94.584;2023-06-14T15:09:53;23.00;47.50
62809;DHT22;48848;39.002;-94.584;2023-06-14T15:12:19;23.10;47.60
62809;DHT22;48848;39.002;-94.584;2023-06-14T15:14:51;23.00;47.50
62809;DHT22;48848;39.002;-94.584;2023-06-14T15:17:17;23.00;47.60